sensor_id;sensor_type;location;lat;lon;timestamp;temperature;humidity
76120;DHT22;64852;48.092;-1.640;2024-01-06T00:00:30;8.50;99.90
76120;DHT22;64852;48.092;-1.640;2024-01-06T00:02:55;8.30;99.90
76120;DHT22;64852;48.092;-1.640;2024-01-06T00:05:21;7.80;99.90
76120;DHT22;64852;48.092;-1.640;2024-01-06T00:07:47;7.40;99.90
76120;DHT22;64852;48.092;-1.640;2024-01-06T00:10:12;7.20;99.90
76120;DHT22;64852;48.092;-1.640;2024-01-06T00:12:38;7.10;99.90
76120;DHT22;64852;48.092;-1.640;2024-01-06T00:15:03;7.10;99.90
76120;DHT22;64852;48.092;-1.640;2024-01-06T00:17:29;7.00;99.90
76120;DHT22;64852;48.092;-1.640;2024-01-06T00:19:55;7.60;99.90
76120;DHT22;64852;48.092;-1.640;2024-01-06T00:22:20;7.10;99.90
76120;DHT22;64852;48.092;-1.640;2024-01-06T00:24:46;7.80;99.90
76120;DHT22;64852;48.092;-1.640;2024-01-06T00:27:11;7.00;99.90
76120;DHT22;64852;48.092;-1.640;2024-01-06T00:29:37;7.70;99.90
76120;DHT22;64852;48.092;-1.640;2024-01-06T00:32:02;7.10;99.90
76120;DHT22;64852;48.092;-1.640;2024-01-06T00:34:28;6.90;99.90
76120;DHT22;64852;48.092;-1.640;2024-01-06T00:36:53;7.00;99.90
76120;DHT22;64852;48.092;-1.640;2024-01-06T00:39:19;6.90;99.90
76120;DHT22;64852;48.092;-1.640;2024-01-06T00:41:45;6.90;99.90
76120;DHT22;64852;48.092;-1.640;2024-01-06T00:44:11;7.00;99.90
76120;DHT22;64852;48.092;-1.640;2024-01-06T00:46:37;7.00;99.90
76120;DHT22;64852;48.092;-1.640;2024-01-06T00:49:02;7.90;99.90
76120;DHT22;64852;48.092;-1.640;2024-01-06T00:51:29;8.40;99.90
76120;DHT22;64852;48.092;-1.640;2024-01-06T00:53:54;8.10;99.90
76120;DHT22;64852;48.092;-1.640;2024-01-06T00:56:20;7.00;99.90
76120;DHT22;64852;48.092;-1.640;2024-01-06T00:58:46;7.00;99.90
76120;DHT22;64852;48.092;-1.640;2024-01-06T01:01:11;8.20;99.90
76120;DHT22;64852;48.092;-1.640;2024-01-06T01:03:37;7.20;99.90
76120;DHT22;64852;48.092;-1.640;2024-01-06T01:06:03;8.60;99.90
76120;DHT22;64852;48.092;-1.640;2024-01-06T01:08:29;7.80;99.90
76120;DHT22;64852;48.092;-1.640;2024-01-06T01:10:56;7.50;99.90
76120;DHT22;64852;48.092;-1.640;2024-01-06T01:13:22;8.20;99.90
76120;DHT22;64852;48.092;-1.640;2024-01-06T01:15:48;8.00;99.90
76120;DHT22;64852;48.092;-1.640;2024-01-06T01:18:14;7.60;99.90
76120;DHT22;64852;48.092;-1.640;2024-01-06T01:20:39;8.30;99.90
76120;DHT22;64852;48.092;-1.640;2024-01-06T01:23:07;8.30;99.90
76120;DHT22;64852;48.092;-1.640;2024-01-06T01:25:33;8.60;99.90
76120;DHT22;64852;48.092;-1.640;2024-01-06T01:27:58;9.00;99.90
76120;DHT22;64852;48.092;-1.640;2024-01-06T01:30:24;8.90;99.90
76120;DHT22;64852;48.092;-1.640;2024-01-06T01:32:50;8.00;99.90
76120;DHT22;64852;48.092;-1.640;2024-01-06T01:35:15;8.30;99.90
76120;DHT22;64852;48.092;-1.640;2024-01-06T01:37:41;8.60;99.90
76120;DHT22;64852;48.092;-1.640;2024-01-06T01:40:07;8.40;99.90
76120;DHT22;64852;48.092;-1.640;2024-01-06T01:42:33;8.30;99.90
76120;DHT22;64852;48.092;-1.640;2024-01-06T01:44:59;8.80;99.90
76120;DHT22;64852;48.092;-1.640;2024-01-06T01:47:25;9.30;99.90
76120;DHT22;64852;48.092;-1.640;2024-01-06T01:49:53;8.90;99.90
76120;DHT22;64852;48.092;-1.640;2024-01-06T01:52:20;8.70;99.90
76120;DHT22;64852;48.092;-1.640;2024-01-06T01:54:45;9.30;99.90
76120;DHT22;64852;48.092;-1.640;2024-01-06T01:57:13;8.90;99.90
76120;DHT22;64852;48.092;-1.640;2024-01-06T01:59:39;9.30;99.90
76120;DHT22;64852;48.092;-1.640;2024-01-06T02:02:05;8.90;99.90
76120;DHT22;64852;48.092;-1.640;2024-01-06T02:04:31;8.70;99.90
76120;DHT22;64852;48.092;-1.640;2024-01-06T02:06:57;9.50;99.90
76120;DHT22;64852;48.092;-1.640;2024-01-06T02:09:23;9.40;99.90
76120;DHT22;64852;48.092;-1.640;2024-01-06T02:11:52;8.80;99.90
76120;DHT22;64852;48.092;-1.640;2024-01-06T02:14:18;8.60;99.90
76120;DHT22;64852;48.092;-1.640;2024-01-06T02:16:43;8.50;99.90
76120;DHT22;64852;48.092;-1.640;2024-01-06T02:19:11;9.00;99.90
76120;DHT22;64852;48.092;-1.640;2024-01-06T02:21:42;9.30;99.90
76120;DHT22;64852;48.092;-1.640;2024-01-06T02:24:08;8.40;99.90
76120;DHT22;64852;48.092;-1.640;2024-01-06T02:26:34;8.70;99.90
76120;DHT22;64852;48.092;-1.640;2024-01-06T02:29:00;8.80;99.90
76120;DHT22;64852;48.092;-1.640;2024-01-06T02:31:26;8.70;99.90
76120;DHT22;64852;48.092;-1.640;2024-01-06T02:33:52;9.00;99.90
76120;DHT22;64852;48.092;-1.640;2024-01-06T02:36:18;8.10;99.90
76120;DHT22;64852;48.092;-1.640;2024-01-06T02:38:43;8.60;99.90
76120;DHT22;64852;48.092;-1.640;2024-01-06T02:41:09;8.00;99.90
76120;DHT22;64852;48.092;-1.640;2024-01-06T02:43:34;8.80;99.90
76120;DHT22;64852;48.092;-1.640;2024-01-06T02:46:00;8.00;99.90
76120;DHT22;64852;48.092;-1.640;2024-01-06T02:48:25;7.90;99.90
76120;DHT22;64852;48.092;-1.640;2024-01-06T02:50:51;8.00;99.90
76120;DHT22;64852;48.092;-1.640;2024-01-06T02:53:16;7.90;99.90
76120;DHT22;64852;48.092;-1.640;2024-01-06T02:55:42;7.90;99.90
76120;DHT22;64852;48.092;-1.640;2024-01-06T02:58:07;8.00;99.90
76120;DHT22;64852;48.092;-1.640;2024-01-06T03:00:33;7.90;99.90
76120;DHT22;64852;48.092;-1.640;2024-01-06T03:02:58;9.00;99.90
76120;DHT22;64852;48.092;-1.640;2024-01-06T03:05:24;8.70;99.90
76120;DHT22;64852;48.092;-1.640;2024-01-06T03:07:49;8.00;99.90
76120;DHT22;64852;48.092;-1.640;2024-01-06T03:10:15;8.00;99.90
76120;DHT22;64852;48.092;-1.640;2024-01-06T03:12:40;7.80;99.90
76120;DHT22;64852;48.092;-1.640;2024-01-06T03:15:06;7.70;99.90
76120;DHT22;64852;48.092;-1.640;2024-01-06T03:17:32;7.80;99.90
76120;DHT22;64852;48.092;-1.640;2024-01-06T03:19:57;8.40;99.90
76120;DHT22;64852;48.092;-1.640;2024-01-06T03:22:22;8.70;99.90
76120;DHT22;64852;48.092;-1.640;2024-01-06T03:24:48;7.80;99.90
76120;DHT22;64852;48.092;-1.640;2024-01-06T03:27:13;8.60;99.90
76120;DHT22;64852;48.092;-1.640;2024-01-06T03:29:39;7.80;99.90
76120;DHT22;64852;48.092;-1.640;2024-01-06T03:32:05;7.80;99.90
76120;DHT22;64852;48.092;-1.640;2024-01-06T03:34:30;7.80;99.90
76120;DHT22;64852;48.092;-1.640;2024-01-06T03:36:56;7.80;99.90
76120;DHT22;64852;48.092;-1.640;2024-01-06T03:39:21;7.80;99.90
76120;DHT22;64852;48.092;-1.640;2024-01-06T03:41:48;7.70;99.90
76120;DHT22;64852;48.092;-1.640;2024-01-06T03:44:13;8.20;99.90
76120;DHT22;64852;48.092;-1.640;2024-01-06T03:46:39;7.70;99.90
76120;DHT22;64852;48.092;-1.640;2024-01-06T03:49:04;7.60;99.90
76120;DHT22;64852;48.092;-1.640;2024-01-06T03:51:30;8.10;99.90
76120;DHT22;64852;48.092;-1.640;2024-01-06T03:53:55;7.70;99.90
76120;DHT22;64852;48.092;-1.640;2024-01-06T03:56:21;8.60;99.90
76120;DHT22;64852;48.092;-1.640;2024-01-06T03:58:46;8.30;99.90
76120;DHT22;64852;48.092;-1.640;2024-01-06T04:01:12;7.50;99.90
76120;DHT22;64852;48.092;-1.640;2024-01-06T04:03:38;7.60;99.90
76120;DHT22;64852;48.092;-1.640;2024-01-06T04:06:05;8.10;99.90
76120;DHT22;64852;48.092;-1.640;2024-01-06T04:08:31;7.60;99.90
76120;DHT22;64852;48.092;-1.640;2024-01-06T04:10:56;7.60;99.90
76120;DHT22;64852;48.092;-1.640;2024-01-06T04:13:22;7.50;99.90
76120;DHT22;64852;48.092;-1.640;2024-01-06T04:15:50;7.70;99.90
76120;DHT22;64852;48.092;-1.640;2024-01-06T04:18:16;8.10;99.90
76120;DHT22;64852;48.092;-1.640;2024-01-06T04:20:41;8.50;99.90
76120;DHT22;64852;48.092;-1.640;2024-01-06T04:23:07;7.70;99.90
76120;DHT22;64852;48.092;-1.640;2024-01-06T04:25:32;7.40;99.90
76120;DHT22;64852;48.092;-1.640;2024-01-06T04:27:59;8.50;99.90
76120;DHT22;64852;48.092;-1.640;2024-01-06T04:30:24;8.30;99.90
76120;DHT22;64852;48.092;-1.640;2024-01-06T04:32:51;7.50;99.90
76120;DHT22;64852;48.092;-1.640;2024-01-06T04:35:17;7.60;99.90
76120;DHT22;64852;48.092;-1.640;2024-01-06T04:37:43;8.30;99.90
76120;DHT22;64852;48.092;-1.640;2024-01-06T04:40:10;7.60;99.90
76120;DHT22;64852;48.092;-1.640;2024-01-06T04:42:35;7.60;99.90
76120;DHT22;64852;48.092;-1.640;2024-01-06T04:45:01;7.70;99.90
76120;DHT22;64852;48.092;-1.640;2024-01-06T04:47:28;7.80;99.90
76120;DHT22;64852;48.092;-1.640;2024-01-06T04:49:56;8.60;99.90
76120;DHT22;64852;48.092;-1.640;2024-01-06T04:52:22;8.70;99.90
76120;DHT22;64852;48.092;-1.640;2024-01-06T04:54:47;8.80;99.90
76120;DHT22;64852;48.092;-1.640;2024-01-06T04:57:13;8.70;99.90
76120;DHT22;64852;48.092;-1.640;2024-01-06T04:59:39;8.00;99.90
76120;DHT22;64852;48.092;-1.640;2024-01-06T05:02:05;8.50;99.90
76120;DHT22;64852;48.092;-1.640;2024-01-06T05:04:31;9.20;99.90
76120;DHT22;64852;48.092;-1.640;2024-01-06T05:06:58;8.80;99.90
76120;DHT22;64852;48.092;-1.640;2024-01-06T05:09:24;8.70;99.90
76120;DHT22;64852;48.092;-1.640;2024-01-06T05:11:50;8.50;99.90
76120;DHT22;64852;48.092;-1.640;2024-01-06T05:14:16;8.60;99.90
76120;DHT22;64852;48.092;-1.640;2024-01-06T05:16:41;8.70;99.90
76120;DHT22;64852;48.092;-1.640;2024-01-06T05:19:08;9.40;99.90
76120;DHT22;64852;48.092;-1.640;2024-01-06T05:21:34;8.60;99.90
76120;DHT22;64852;48.092;-1.640;2024-01-06T05:24:00;8.60;99.90
76120;DHT22;64852;48.092;-1.640;2024-01-06T05:26:26;8.50;99.90
76120;DHT22;64852;48.092;-1.640;2024-01-06T05:28:52;9.20;99.90
76120;DHT22;64852;48.092;-1.640;2024-01-06T05:31:18;8.40;99.90
76120;DHT22;64852;48.092;-1.640;2024-01-06T05:33:43;9.40;99.90
76120;DHT22;64852;48.092;-1.640;2024-01-06T05:36:09;9.30;99.90
76120;DHT22;64852;48.092;-1.640;2024-01-06T05:38:36;8.40;99.90
76120;DHT22;64852;48.092;-1.640;2024-01-06T05:41:02;9.40;99.90
76120;DHT22;64852;48.092;-1.640;2024-01-06T05:43:28;8.30;99.90
76120;DHT22;64852;48.092;-1.640;2024-01-06T05:45:53;8.50;99.90
76120;DHT22;64852;48.092;-1.640;2024-01-06T05:48:19;8.40;99.90
76120;DHT22;64852;48.092;-1.640;2024-01-06T05:50:45;8.50;99.90
76120;DHT22;64852;48.092;-1.640;2024-01-06T05:53:11;9.10;99.90
76120;DHT22;64852;48.092;-1.640;2024-01-06T05:55:36;9.30;99.90
76120;DHT22;64852;48.092;-1.640;2024-01-06T05:58:02;8.40;99.90
76120;DHT22;64852;48.092;-1.640;2024-01-06T06:00:28;8.30;99.90
76120;DHT22;64852;48.092;-1.640;2024-01-06T06:02:57;8.40;99.90
76120;DHT22;64852;48.092;-1.640;2024-01-06T06:05:22;8.70;99.90
76120;DHT22;64852;48.092;-1.640;2024-01-06T06:07:48;8.80;99.90
76120;DHT22;64852;48.092;-1.640;2024-01-06T06:10:13;9.00;99.90
76120;DHT22;64852;48.092;-1.640;2024-01-06T06:12:41;8.40;99.90
76120;DHT22;64852;48.092;-1.640;2024-01-06T06:15:07;9.10;99.90
76120;DHT22;64852;48.092;-1.640;2024-01-06T06:17:33;8.30;99.90
76120;DHT22;64852;48.092;-1.640;2024-01-06T06:19:59;9.30;99.90
76120;DHT22;64852;48.092;-1.640;2024-01-06T06:22:28;8.40;99.90
76120;DHT22;64852;48.092;-1.640;2024-01-06T06:24:59;9.20;99.90
76120;DHT22;64852;48.092;-1.640;2024-01-06T06:27:25;8.30;99.90
76120;DHT22;64852;48.092;-1.640;2024-01-06T06:29:52;9.10;99.90
76120;DHT22;64852;48.092;-1.640;2024-01-06T06:32:17;8.20;99.90
76120;DHT22;64852;48.092;-1.640;2024-01-06T06:34:43;8.40;99.90
76120;DHT22;64852;48.092;-1.640;2024-01-06T06:37:08;8.30;99.90
76120;DHT22;64852;48.092;-1.640;2024-01-06T06:39:34;7.80;99.90
76120;DHT22;64852;48.092;-1.640;2024-01-06T06:42:01;7.90;99.90
76120;DHT22;64852;48.092;-1.640;2024-01-06T06:44:27;7.70;99.90
76120;DHT22;64852;48.092;-1.640;2024-01-06T06:46:52;7.30;99.90
76120;DHT22;64852;48.092;-1.640;2024-01-06T06:49:18;7.70;99.90
76120;DHT22;64852;48.092;-1.640;2024-01-06T06:51:43;7.40;99.90
76120;DHT22;64852;48.092;-1.640;2024-01-06T06:54:14;7.10;99.90
76120;DHT22;64852;48.092;-1.640;2024-01-06T06:56:43;7.00;99.90
76120;DHT22;64852;48.092;-1.640;2024-01-06T06:59:09;7.80;99.90
76120;DHT22;64852;48.092;-1.640;2024-01-06T07:01:34;7.40;99.90
76120;DHT22;64852;48.092;-1.640;2024-01-06T07:04:01;7.50;99.90
76120;DHT22;64852;48.092;-1.640;2024-01-06T07:06:27;7.60;99.90
76120;DHT22;64852;48.092;-1.640;2024-01-06T07:08:53;7.10;99.90
76120;DHT22;64852;48.092;-1.640;2024-01-06T07:11:18;7.00;99.90
76120;DHT22;64852;48.092;-1.640;2024-01-06T07:13:44;6.80;99.90
76120;DHT22;64852;48.092;-1.640;2024-01-06T07:16:10;7.80;99.90
76120;DHT22;64852;48.092;-1.640;2024-01-06T07:18:37;7.70;99.90
76120;DHT22;64852;48.092;-1.640;2024-01-06T07:21:04;6.70;99.90
76120;DHT22;64852;48.092;-1.640;2024-01-06T07:23:29;6.70;99.90
76120;DHT22;64852;48.092;-1.640;2024-01-06T07:25:55;6.60;99.90
76120;DHT22;64852;48.092;-1.640;2024-01-06T07:28:20;7.30;99.90
76120;DHT22;64852;48.092;-1.640;2024-01-06T07:30:46;7.30;99.90
76120;DHT22;64852;48.092;-1.640;2024-01-06T07:33:12;6.60;99.90
76120;DHT22;64852;48.092;-1.640;2024-01-06T07:35:37;6.70;99.90
76120;DHT22;64852;48.092;-1.640;2024-01-06T07:38:07;8.30;99.90
76120;DHT22;64852;48.092;-1.640;2024-01-06T07:40:33;6.60;99.90
76120;DHT22;64852;48.092;-1.640;2024-01-06T07:42:59;7.10;99.90
76120;DHT22;64852;48.092;-1.640;2024-01-06T07:45:24;6.70;99.90
76120;DHT22;64852;48.092;-1.640;2024-01-06T07:47:50;6.60;99.90
76120;DHT22;64852;48.092;-1.640;2024-01-06T07:50:15;8.20;99.90
76120;DHT22;64852;48.092;-1.640;2024-01-06T07:52:40;7.40;99.90
76120;DHT22;64852;48.092;-1.640;2024-01-06T07:55:06;7.50;99.90
76120;DHT22;64852;48.092;-1.640;2024-01-06T07:57:32;6.60;99.90
76120;DHT22;64852;48.092;-1.640;2024-01-06T07:59:57;7.80;99.90
76120;DHT22;64852;48.092;-1.640;2024-01-06T08:02:23;7.20;99.90
76120;DHT22;64852;48.092;-1.640;2024-01-06T08:04:48;6.50;99.90
76120;DHT22;64852;48.092;-1.640;2024-01-06T08:07:14;8.00;99.90
76120;DHT22;64852;48.092;-1.640;2024-01-06T08:09:39;7.80;99.90
76120;DHT22;64852;48.092;-1.640;2024-01-06T08:12:05;7.70;99.90
76120;DHT22;64852;48.092;-1.640;2024-01-06T08:14:31;6.70;99.90
76120;DHT22;64852;48.092;-1.640;2024-01-06T08:16:56;6.80;99.90
76120;DHT22;64852;48.092;-1.640;2024-01-06T08:19:21;6.90;99.90
76120;DHT22;64852;48.092;-1.640;2024-01-06T08:21:47;6.90;99.90
76120;DHT22;64852;48.092;-1.640;2024-01-06T08:24:13;7.00;99.90
76120;DHT22;64852;48.092;-1.640;2024-01-06T08:26:38;8.30;99.90
76120;DHT22;64852;48.092;-1.640;2024-01-06T08:29:04;7.10;99.90
76120;DHT22;64852;48.092;-1.640;2024-01-06T08:31:29;7.50;99.90
76120;DHT22;64852;48.092;-1.640;2024-01-06T08:33:55;7.10;99.90
76120;DHT22;64852;48.092;-1.640;2024-01-06T08:36:20;7.20;99.90
76120;DHT22;64852;48.092;-1.640;2024-01-06T08:38:47;7.90;99.90
76120;DHT22;64852;48.092;-1.640;2024-01-06T08:41:12;7.10;99.90
76120;DHT22;64852;48.092;-1.640;2024-01-06T08:43:38;7.20;99.90
76120;DHT22;64852;48.092;-1.640;2024-01-06T08:46:03;7.20;99.90
76120;DHT22;64852;48.092;-1.640;2024-01-06T08:48:31;7.70;99.90
76120;DHT22;64852;48.092;-1.640;2024-01-06T08:50:56;7.30;99.90
76120;DHT22;64852;48.092;-1.640;2024-01-06T08:53:22;7.30;99.90
76120;DHT22;64852;48.092;-1.640;2024-01-06T08:55:47;7.80;99.90
76120;DHT22;64852;48.092;-1.640;2024-01-06T08:58:13;8.40;99.90
76120;DHT22;64852;48.092;-1.640;2024-01-06T09:00:38;8.60;99.90
76120;DHT22;64852;48.092;-1.640;2024-01-06T09:03:04;7.80;99.90
76120;DHT22;64852;48.092;-1.640;2024-01-06T09:05:29;7.80;99.90
76120;DHT22;64852;48.092;-1.640;2024-01-06T09:07:55;8.10;99.90
76120;DHT22;64852;48.092;-1.640;2024-01-06T09:10:20;7.80;99.90
76120;DHT22;64852;48.092;-1.640;2024-01-06T09:12:46;7.90;99.90
76120;DHT22;64852;48.092;-1.640;2024-01-06T09:15:11;7.90;99.90
76120;DHT22;64852;48.092;-1.640;2024-01-06T09:17:37;8.80;99.90
76120;DHT22;64852;48.092;-1.640;2024-01-06T09:20:03;8.00;99.90
76120;DHT22;64852;48.092;-1.640;2024-01-06T09:22:28;7.80;99.90
76120;DHT22;64852;48.092;-1.640;2024-01-06T09:24:54;7.70;99.90
76120;DHT22;64852;48.092;-1.640;2024-01-06T09:27:20;7.80;99.90
76120;DHT22;64852;48.092;-1.640;2024-01-06T09:29:45;7.70;99.90
76120;DHT22;64852;48.092;-1.640;2024-01-06T09:32:11;8.90;99.90
76120;DHT22;64852;48.092;-1.640;2024-01-06T09:34:38;7.90;99.90
76120;DHT22;64852;48.092;-1.640;2024-01-06T09:37:03;8.40;99.90
76120;DHT22;64852;48.092;-1.640;2024-01-06T09:39:29;8.70;99.90
76120;DHT22;64852;48.092;-1.640;2024-01-06T09:41:56;8.20;99.90
76120;DHT22;64852;48.092;-1.640;2024-01-06T09:44:21;7.10;99.90
76120;DHT22;64852;48.092;-1.640;2024-01-06T09:46:47;9.10;99.90
76120;DHT22;64852;48.092;-1.640;2024-01-06T09:49:15;8.30;99.90
76120;DHT22;64852;48.092;-1.640;2024-01-06T09:51:42;8.40;99.90
76120;DHT22;64852;48.092;-1.640;2024-01-06T09:54:09;9.50;99.90
76120;DHT22;64852;48.092;-1.640;2024-01-06T09:56:35;8.60;99.90
76120;DHT22;64852;48.092;-1.640;2024-01-06T09:59:01;9.40;99.90
76120;DHT22;64852;48.092;-1.640;2024-01-06T10:01:27;9.10;99.90
76120;DHT22;64852;48.092;-1.640;2024-01-06T10:03:53;9.80;99.90
76120;DHT22;64852;48.092;-1.640;2024-01-06T10:06:18;9.10;99.90
76120;DHT22;64852;48.092;-1.640;2024-01-06T10:08:50;9.00;99.90
76120;DHT22;64852;48.092;-1.640;2024-01-06T10:11:16;9.40;99.90
76120;DHT22;64852;48.092;-1.640;2024-01-06T10:13:42;9.50;99.90
76120;DHT22;64852;48.092;-1.640;2024-01-06T10:16:08;9.90;99.90
76120;DHT22;64852;48.092;-1.640;2024-01-06T10:18:34;10.10;99.90
76120;DHT22;64852;48.092;-1.640;2024-01-06T10:21:04;8.70;99.90
76120;DHT22;64852;48.092;-1.640;2024-01-06T10:23:32;8.60;99.90
76120;DHT22;64852;48.092;-1.640;2024-01-06T10:25:58;8.70;99.90
76120;DHT22;64852;48.092;-1.640;2024-01-06T10:28:24;9.00;99.90
76120;DHT22;64852;48.092;-1.640;2024-01-06T10:30:54;9.40;99.90
76120;DHT22;64852;48.092;-1.640;2024-01-06T10:33:21;8.70;99.90
76120;DHT22;64852;48.092;-1.640;2024-01-06T10:35:47;9.60;99.90
76120;DHT22;64852;48.092;-1.640;2024-01-06T10:38:14;10.00;99.90
76120;DHT22;64852;48.092;-1.640;2024-01-06T10:41:02;9.10;99.90
76120;DHT22;64852;48.092;-1.640;2024-01-06T10:43:32;9.00;99.90
76120;DHT22;64852;48.092;-1.640;2024-01-06T10:46:03;9.30;99.90
76120;DHT22;64852;48.092;-1.640;2024-01-06T10:48:34;9.50;99.90
76120;DHT22;64852;48.092;-1.640;2024-01-06T10:51:01;10.40;99.90
76120;DHT22;64852;48.092;-1.640;2024-01-06T10:53:28;9.70;99.90
76120;DHT22;64852;48.092;-1.640;2024-01-06T10:55:53;10.50;99.90
76120;DHT22;64852;48.092;-1.640;2024-01-06T10:58:19;10.50;99.90
76120;DHT22;64852;48.092;-1.640;2024-01-06T11:00:46;9.50;99.90
76120;DHT22;64852;48.092;-1.640;2024-01-06T11:03:12;9.50;99.90
76120;DHT22;64852;48.092;-1.640;2024-01-06T11:05:38;9.70;99.90
76120;DHT22;64852;48.092;-1.640;2024-01-06T11:08:06;9.70;99.90
76120;DHT22;64852;48.092;-1.640;2024-01-06T11:10:32;9.70;99.90
76120;DHT22;64852;48.092;-1.640;2024-01-06T11:13:12;10.60;99.90
76120;DHT22;64852;48.092;-1.640;2024-01-06T11:15:46;9.40;99.90
76120;DHT22;64852;48.092;-1.640;2024-01-06T11:18:31;10.10;99.90
76120;DHT22;64852;48.092;-1.640;2024-01-06T11:23:40;10.30;99.90
76120;DHT22;64852;48.092;-1.640;2024-01-06T11:26:09;9.70;99.90
76120;DHT22;64852;48.092;-1.640;2024-01-06T11:28:47;9.80;99.90
76120;DHT22;64852;48.092;-1.640;2024-01-06T11:31:13;10.90;99.90
76120;DHT22;64852;48.092;-1.640;2024-01-06T11:33:45;10.00;99.90
76120;DHT22;64852;48.092;-1.640;2024-01-06T11:36:17;10.80;99.90
76120;DHT22;64852;48.092;-1.640;2024-01-06T11:38:46;10.50;99.90
76120;DHT22;64852;48.092;-1.640;2024-01-06T11:41:48;11.00;99.90
76120;DHT22;64852;48.092;-1.640;2024-01-06T11:44:18;10.40;99.90
76120;DHT22;64852;48.092;-1.640;2024-01-06T11:46:45;10.60;99.90
76120;DHT22;64852;48.092;-1.640;2024-01-06T11:49:15;11.00;99.90
76120;DHT22;64852;48.092;-1.640;2024-01-06T11:51:41;11.20;99.90
76120;DHT22;64852;48.092;-1.640;2024-01-06T11:54:08;11.10;99.90
76120;DHT22;64852;48.092;-1.640;2024-01-06T11:56:34;11.30;99.90
76120;DHT22;64852;48.092;-1.640;2024-01-06T11:59:00;12.10;99.90
76120;DHT22;64852;48.092;-1.640;2024-01-06T12:01:26;11.10;99.90
76120;DHT22;64852;48.092;-1.640;2024-01-06T12:03:55;11.20;99.90
76120;DHT22;64852;48.092;-1.640;2024-01-06T12:06:21;11.30;99.90
76120;DHT22;64852;48.092;-1.640;2024-01-06T12:08:47;11.90;99.90
76120;DHT22;64852;48.092;-1.640;2024-01-06T12:11:12;12.80;99.90
76120;DHT22;64852;48.092;-1.640;2024-01-06T12:13:44;11.80;99.90
76120;DHT22;64852;48.092;-1.640;2024-01-06T12:16:09;11.80;99.90
76120;DHT22;64852;48.092;-1.640;2024-01-06T12:18:35;11.50;99.90
76120;DHT22;64852;48.092;-1.640;2024-01-06T12:21:02;11.10;99.90
76120;DHT22;64852;48.092;-1.640;2024-01-06T12:23:28;10.80;99.90
76120;DHT22;64852;48.092;-1.640;2024-01-06T12:25:57;10.60;99.90
76120;DHT22;64852;48.092;-1.640;2024-01-06T12:28:22;10.40;99.90
76120;DHT22;64852;48.092;-1.640;2024-01-06T12:30:48;10.50;99.90
76120;DHT22;64852;48.092;-1.640;2024-01-06T12:33:14;10.90;99.90
76120;DHT22;64852;48.092;-1.640;2024-01-06T12:35:40;10.20;99.90
76120;DHT22;64852;48.092;-1.640;2024-01-06T12:38:08;10.50;99.90
76120;DHT22;64852;48.092;-1.640;2024-01-06T12:40:35;10.20;99.90
76120;DHT22;64852;48.092;-1.640;2024-01-06T12:43:02;10.80;99.90
76120;DHT22;64852;48.092;-1.640;2024-01-06T12:45:28;10.00;99.90
76120;DHT22;64852;48.092;-1.640;2024-01-06T12:47:54;10.10;99.90
76120;DHT22;64852;48.092;-1.640;2024-01-06T12:50:20;10.60;99.90
76120;DHT22;64852;48.092;-1.640;2024-01-06T12:52:45;10.20;99.90
76120;DHT22;64852;48.092;-1.640;2024-01-06T12:55:11;9.90;99.90
76120;DHT22;64852;48.092;-1.640;2024-01-06T12:57:37;9.80;99.90
76120;DHT22;64852;48.092;-1.640;2024-01-06T13:00:03;9.90;99.90
76120;DHT22;64852;48.092;-1.640;2024-01-06T13:02:31;9.80;99.90
76120;DHT22;64852;48.092;-1.640;2024-01-06T13:04:56;9.80;99.90
76120;DHT22;64852;48.092;-1.640;2024-01-06T13:07:23;9.90;99.90
76120;DHT22;64852;48.092;-1.640;2024-01-06T13:09:49;10.20;99.90
76120;DHT22;64852;48.092;-1.640;2024-01-06T13:12:15;10.30;99.90
76120;DHT22;64852;48.092;-1.640;2024-01-06T13:14:41;10.40;99.90
76120;DHT22;64852;48.092;-1.640;2024-01-06T13:17:09;10.60;99.90
76120;DHT22;64852;48.092;-1.640;2024-01-06T13:19:35;11.80;99.90
76120;DHT22;64852;48.092;-1.640;2024-01-06T13:22:01;11.60;99.90
76120;DHT22;64852;48.092;-1.640;2024-01-06T13:24:26;11.60;99.90
76120;DHT22;64852;48.092;-1.640;2024-01-06T13:26:52;11.60;99.90
76120;DHT22;64852;48.092;-1.640;2024-01-06T13:29:17;11.60;99.90
76120;DHT22;64852;48.092;-1.640;2024-01-06T13:31:44;12.70;99.90
76120;DHT22;64852;48.092;-1.640;2024-01-06T13:34:09;12.30;99.90
76120;DHT22;64852;48.092;-1.640;2024-01-06T13:36:35;12.50;99.90
76120;DHT22;64852;48.092;-1.640;2024-01-06T13:39:01;12.60;99.90
76120;DHT22;64852;48.092;-1.640;2024-01-06T13:41:27;12.80;99.90
76120;DHT22;64852;48.092;-1.640;2024-01-06T13:43:52;12.50;99.90
76120;DHT22;64852;48.092;-1.640;2024-01-06T13:46:18;12.40;99.90
76120;DHT22;64852;48.092;-1.640;2024-01-06T13:48:43;12.20;99.90
76120;DHT22;64852;48.092;-1.640;2024-01-06T13:51:09;11.80;99.90
76120;DHT22;64852;48.092;-1.640;2024-01-06T13:53:35;11.60;99.90
76120;DHT22;64852;48.092;-1.640;2024-01-06T13:56:01;11.40;99.90
76120;DHT22;64852;48.092;-1.640;2024-01-06T13:58:26;11.40;99.90
76120;DHT22;64852;48.092;-1.640;2024-01-06T14:00:53;12.30;99.90
76120;DHT22;64852;48.092;-1.640;2024-01-06T14:03:19;12.30;99.90
76120;DHT22;64852;48.092;-1.640;2024-01-06T14:05:44;12.10;99.90
76120;DHT22;64852;48.092;-1.640;2024-01-06T14:08:10;12.30;99.90
76120;DHT22;64852;48.092;-1.640;2024-01-06T14:10:35;12.60;99.90
76120;DHT22;64852;48.092;-1.640;2024-01-06T14:13:03;12.60;99.90
76120;DHT22;64852;48.092;-1.640;2024-01-06T14:15:29;12.50;99.90
76120;DHT22;64852;48.092;-1.640;2024-01-06T14:17:56;12.40;99.90
76120;DHT22;64852;48.092;-1.640;2024-01-06T14:20:22;12.20;99.90
76120;DHT22;64852;48.092;-1.640;2024-01-06T14:22:47;12.00;99.90
76120;DHT22;64852;48.092;-1.640;2024-01-06T14:25:15;12.40;99.90
76120;DHT22;64852;48.092;-1.640;2024-01-06T14:27:43;12.00;99.90
76120;DHT22;64852;48.092;-1.640;2024-01-06T14:30:09;12.00;99.90
76120;DHT22;64852;48.092;-1.640;2024-01-06T14:32:36;12.00;99.90
76120;DHT22;64852;48.092;-1.640;2024-01-06T14:35:05;12.00;99.90
76120;DHT22;64852;48.092;-1.640;2024-01-06T14:37:37;12.00;99.90
76120;DHT22;64852;48.092;-1.640;2024-01-06T14:40:03;11.70;99.90
76120;DHT22;64852;48.092;-1.640;2024-01-06T14:42:31;11.50;99.90
76120;DHT22;64852;48.092;-1.640;2024-01-06T14:44:57;11.70;99.90
76120;DHT22;64852;48.092;-1.640;2024-01-06T14:47:23;11.10;99.90
76120;DHT22;64852;48.092;-1.640;2024-01-06T14:49:48;11.10;99.90
76120;DHT22;64852;48.092;-1.640;2024-01-06T14:52:14;11.30;99.90
76120;DHT22;64852;48.092;-1.640;2024-01-06T14:54:39;10.70;99.90
76120;DHT22;64852;48.092;-1.640;2024-01-06T14:57:05;10.60;99.90
76120;DHT22;64852;48.092;-1.640;2024-01-06T14:59:31;10.40;99.90
76120;DHT22;64852;48.092;-1.640;2024-01-06T15:01:57;10.20;99.90
76120;DHT22;64852;48.092;-1.640;2024-01-06T15:04:23;10.10;99.90
76120;DHT22;64852;48.092;-1.640;2024-01-06T15:06:48;10.90;99.90
76120;DHT22;64852;48.092;-1.640;2024-01-06T15:09:14;10.80;99.90
76120;DHT22;64852;48.092;-1.640;2024-01-06T15:11:40;10.30;99.90
76120;DHT22;64852;48.092;-1.640;2024-01-06T15:14:05;11.00;99.90
76120;DHT22;64852;48.092;-1.640;2024-01-06T15:16:34;10.20;99.90
76120;DHT22;64852;48.092;-1.640;2024-01-06T15:18:59;10.30;99.90
76120;DHT22;64852;48.092;-1.640;2024-01-06T15:21:25;10.20;99.90
76120;DHT22;64852;48.092;-1.640;2024-01-06T15:23:54;10.00;99.90